createdAt,value
2022-08-07T00:02:36.987Z,102059.63
2022-08-07T00:04:15.399Z,102064.09
2022-08-07T00:06:20.491Z,102053.28
2022-08-07T00:08:33.382Z,102063.94
2022-08-07T00:10:47.770Z,102064.81
2022-08-07T00:13:00.607Z,102057.81
2022-08-07T00:15:05.762Z,102064.69
2022-08-07T00:17:09.295Z,102055.91
2022-08-07T00:19:21.294Z,102033.47
2022-08-07T00:21:56.329Z,102043.22
2022-08-07T00:23:48.764Z,102039.69
2022-08-07T00:26:01.537Z,102051.38
2022-08-07T00:28:10.652Z,102040.84
2022-08-07T00:30:21.920Z,102042.38
2022-08-07T00:32:31.497Z,102035.16
2022-08-07T00:34:38.658Z,102034.13
2022-08-07T00:36:43.193Z,102037.50
2022-08-07T00:38:47.127Z,102037.66
2022-08-07T00:40:54.033Z,102035.97
2022-08-07T00:42:57.895Z,102030.53
2022-08-07T00:45:07.049Z,102032.38
2022-08-07T00:47:16.165Z,102021.00
2022-08-07T00:50:19.127Z,102035.97
2022-08-07T00:51:59.198Z,102028.78
2022-08-07T00:54:02.870Z,102028.41
2022-08-07T00:56:13.864Z,102030.22
2022-08-07T00:58:20.587Z,102028.31
2022-08-07T01:00:26.136Z,102035.44
2022-08-07T01:02:30.885Z,102024.88
2022-08-07T01:04:40.092Z,102029.22
2022-08-07T01:06:47.204Z,102021.28
2022-08-07T01:08:53.211Z,102022.97
2022-08-07T01:10:58.445Z,102022.19
2022-08-07T01:13:16.348Z,102014.09
2022-08-07T01:15:21.882Z,102013.31
2022-08-07T01:17:28.039Z,102002.69
2022-08-07T01:19:34.877Z,102007.81
2022-08-07T01:21:47.185Z,102017.94
2022-08-07T01:23:51.808Z,102017.06
2022-08-07T01:25:56.435Z,102004.69
2022-08-07T01:28:01.241Z,102010.75
2022-08-07T01:30:07.713Z,101994.81
2022-08-07T01:32:14.537Z,101919.97
2022-08-07T01:34:23.997Z,102009.69
2022-08-07T01:36:40.502Z,102015.16
2022-08-07T01:38:52.558Z,102010.13
2022-08-07T01:41:02.312Z,102005.75
2022-08-07T01:43:06.512Z,102003.91
2022-08-07T01:45:17.762Z,102008.97
2022-08-07T01:48:19.995Z,102005.56
2022-08-07T01:49:53.551Z,102000.16
2022-08-07T01:52:04.935Z,101997.38
2022-08-07T01:54:32.594Z,102004.53
2022-08-07T01:56:49.215Z,102012.34
2022-08-07T01:58:58.449Z,102004.97
2022-08-07T02:01:09.265Z,102003.06
2022-08-07T02:03:32.158Z,102018.97
2022-08-07T02:05:59.885Z,102010.25
2022-08-07T02:08:13.961Z,102009.31
2022-08-07T02:10:24.832Z,102000.41
2022-08-07T02:12:31.348Z,102018.16
2022-08-07T02:14:40.709Z,102022.94
2022-08-07T02:16:52.436Z,102018.38
2022-08-07T02:18:57.325Z,102020.03
2022-08-07T02:21:06.339Z,102005.38
2022-08-07T02:23:12.700Z,101981.53
2022-08-07T02:26:10.547Z,102003.91
2022-08-07T02:27:53.749Z,101996.00
2022-08-07T02:30:03.958Z,101994.53
2022-08-07T02:32:13.675Z,102003.91
2022-08-07T02:34:20.166Z,101998.81
2022-08-07T02:36:32.891Z,102002.69
2022-08-07T02:38:56.569Z,102001.66
2022-08-07T02:41:04.670Z,101990.38
2022-08-07T02:43:11.209Z,101998.00
2022-08-07T02:46:00.504Z,101990.81
2022-08-07T02:47:48.892Z,102000.50
2022-08-07T02:49:57.901Z,101999.47
2022-08-07T02:52:09.910Z,101963.03
2022-08-07T02:54:21.470Z,101995.41
2022-08-07T02:56:32.994Z,101997.88
2022-08-07T02:58:39.663Z,101971.84
2022-08-07T03:00:53.757Z,101948.31
2022-08-07T03:02:58.352Z,101997.22
2022-08-07T03:05:06.584Z,101991.31
2022-08-07T03:07:11.649Z,101993.16
2022-08-07T03:09:43.496Z,101958.34
2022-08-07T03:11:52.236Z,101999.28
2022-08-07T03:14:05.577Z,101995.75
2022-08-07T03:16:10.953Z,101973.25
2022-08-07T03:18:20.006Z,101996.31
2022-08-07T03:20:25.712Z,102001.19
2022-08-07T03:22:30.756Z,102004.34
2022-08-07T03:24:36.691Z,101998.72
2022-08-07T03:26:51.095Z,102003.72
2022-08-07T03:29:10.397Z,102005.84
2022-08-07T03:31:19.521Z,102003.44
2022-08-07T03:33:32.270Z,102002.91
2022-08-07T03:35:50.590Z,101993.50
2022-08-07T03:38:01.717Z,101998.59
2022-08-07T03:40:16.144Z,101997.75
2022-08-07T03:42:21.767Z,101989.03
2022-08-07T03:44:34.210Z,101990.22
2022-08-07T03:47:14.242Z,101988.53
2022-08-07T03:49:05.589Z,101943.19
2022-08-07T03:51:17.762Z,101975.41
2022-08-07T03:53:49.936Z,101988.63
2022-08-07T03:55:58.328Z,102004.63
2022-08-07T03:59:07.201Z,101975.06
2022-08-07T04:00:36.901Z,101993.66
2022-08-07T04:02:43.136Z,101986.53
2022-08-07T04:04:59.386Z,101986.09
2022-08-07T04:07:07.562Z,101992.25
2022-08-07T04:09:23.468Z,101985.88
2022-08-07T04:12:24.813Z,101995.13
2022-08-07T04:14:33.203Z,101989.25
2022-08-07T04:16:31.078Z,101991.06
2022-08-07T04:18:59.110Z,101976.78
2022-08-07T04:21:07.335Z,101979.56
2022-08-07T04:23:19.390Z,101985.91
2022-08-07T04:25:29.313Z,101983.81
2022-08-07T04:27:43.907Z,101982.56
2022-08-07T04:30:01.405Z,101986.53
2022-08-07T04:32:34.692Z,102004.19
2022-08-07T04:34:40.539Z,101991.03
2022-08-07T04:36:45.247Z,101996.88
2022-08-07T04:38:49.296Z,101979.22
2022-08-07T04:40:56.500Z,102005.81
2022-08-07T04:43:18.639Z,102007.13
2022-08-07T04:45:57.675Z,102007.41
2022-08-07T04:48:10.653Z,102004.13
2022-08-07T04:50:23.813Z,102007.91
2022-08-07T04:52:53.253Z,102020.16
2022-08-07T04:55:15.481Z,102015.75
2022-08-07T04:58:12.970Z,101984.06
2022-08-07T05:00:29.979Z,101982.97
2022-08-07T05:02:49.873Z,102012.72
2022-08-07T05:05:11.950Z,102005.25
2022-08-07T05:07:44.208Z,102012.09
2022-08-07T05:10:00.707Z,102017.53
2022-08-07T05:12:10.616Z,102021.28
2022-08-07T05:14:55.527Z,102010.44
2022-08-07T05:16:52.653Z,102016.75
2022-08-07T05:19:01.512Z,102007.44
2022-08-07T05:21:10.849Z,102012.81
2022-08-07T05:23:23.241Z,102017.75
2022-08-07T05:26:13.471Z,102013.66
2022-08-07T05:28:03.144Z,102010.91
2022-08-07T05:30:30.174Z,101884.53
2022-08-07T05:32:39.723Z,102002.22
2022-08-07T05:34:44.734Z,102025.88
2022-08-07T05:36:52.957Z,102028.41
2022-08-07T05:40:06.423Z,102028.75
2022-08-07T05:42:01.619Z,102033.69
2022-08-07T05:44:12.641Z,102037.50
2022-08-07T05:46:21.821Z,102026.78
2022-08-07T05:48:31.168Z,102015.25
2022-08-07T05:50:39.568Z,102023.25
2022-08-07T05:52:49.300Z,102032.69
2022-08-07T05:54:56.073Z,102037.63
2022-08-07T05:57:07.350Z,102023.25
2022-08-07T05:59:20.779Z,102009.81
2022-08-07T06:01:35.647Z,101924.88
2022-08-07T06:03:53.848Z,102031.28
2022-08-07T06:06:04.854Z,102017.75
2022-08-07T06:08:31.449Z,101941.78
2022-08-07T06:10:37.640Z,102033.06
2022-08-07T06:12:43.796Z,102033.56
2022-08-07T06:14:49.457Z,102047.53
2022-08-07T06:16:56.285Z,102016.41
2022-08-07T06:19:17.997Z,102054.28
2022-08-07T06:22:16.208Z,102051.56
2022-08-07T06:24:46.178Z,102051.16
2022-08-07T06:26:28.996Z,102055.03
2022-08-07T06:28:34.554Z,102038.81
2022-08-07T06:30:45.421Z,102040.25
2022-08-07T06:32:54.183Z,102053.44
2022-08-07T06:34:57.853Z,102047.00
2022-08-07T06:37:02.583Z,102039.97
2022-08-07T06:40:16.275Z,102048.78
2022-08-07T06:42:02.939Z,102041.78
2022-08-07T06:44:25.801Z,102047.84
2022-08-07T06:46:35.317Z,102045.63
2022-08-07T06:48:41.819Z,102033.16
2022-08-07T06:50:49.842Z,102031.19
2022-08-07T06:53:00.258Z,102036.34
2022-08-07T06:55:33.423Z,102041.25
2022-08-07T06:57:48.317Z,102036.88
2022-08-07T07:00:17.710Z,102034.53
2022-08-07T07:02:48.712Z,102040.41
2022-08-07T07:04:55.165Z,102037.00
2022-08-07T07:07:01.077Z,102039.53
2022-08-07T07:09:18.832Z,102030.97
2022-08-07T07:12:07.622Z,102030.19
2022-08-07T07:13:58.600Z,102040.03
2022-08-07T07:16:10.477Z,102033.78
2022-08-07T07:18:37.682Z,102030.53
2022-08-07T07:20:50.697Z,102031.66
2022-08-07T07:24:05.203Z,102030.00
2022-08-07T07:26:35.203Z,102026.91
2022-08-07T07:27:56.207Z,102032.81
2022-08-07T07:30:09.929Z,102033.59
2022-08-07T07:32:17.128Z,102030.09
2022-08-07T07:34:31.173Z,102029.41
2022-08-07T07:36:40.466Z,102026.78
2022-08-07T07:38:46.071Z,102028.59
2022-08-07T07:40:52.948Z,102031.38
2022-08-07T07:43:11.606Z,102029.72
2022-08-07T07:46:35.549Z,102031.41
2022-08-07T07:47:52.735Z,102000.56
2022-08-07T07:50:36.253Z,102009.66
2022-08-07T07:52:24.207Z,102018.72
2022-08-07T07:54:29.243Z,102017.81
2022-08-07T07:56:35.405Z,102021.31
2022-08-07T07:58:41.161Z,102017.00
2022-08-07T08:00:48.695Z,102012.75
2022-08-07T08:03:04.702Z,102012.22
2022-08-07T08:05:15.055Z,102005.31
2022-08-07T08:07:20.160Z,102008.16
2022-08-07T08:09:29.336Z,102007.31
2022-08-07T08:11:47.205Z,102011.03
2022-08-07T08:13:58.958Z,102006.72
2022-08-07T08:16:06.486Z,101998.72
2022-08-07T08:18:18.506Z,102004.19
2022-08-07T08:20:27.416Z,102008.66
2022-08-07T08:22:57.108Z,102006.16
2022-08-07T08:25:27.002Z,102007.06
2022-08-07T08:27:56.763Z,102000.09
2022-08-07T08:30:09.211Z,101965.53
2022-08-07T08:32:25.367Z,101998.47
2022-08-07T08:34:31.332Z,101993.19
2022-08-07T08:36:37.050Z,101995.91
2022-08-07T08:38:45.606Z,101994.97
2022-08-07T08:40:56.041Z,101991.44
2022-08-07T08:43:09.962Z,101994.16
2022-08-07T08:45:22.599Z,101992.41
2022-08-07T08:47:51.935Z,101990.66
2022-08-07T08:50:09.894Z,101987.13
2022-08-07T08:52:23.276Z,101994.19
2022-08-07T08:54:39.406Z,101988.84
2022-08-07T08:56:48.319Z,101993.25
2022-08-07T08:58:58.666Z,101983.69
2022-08-07T09:01:15.726Z,101970.47
2022-08-07T09:03:48.085Z,101958.03
2022-08-07T09:05:56.924Z,101955.50
2022-08-07T09:08:12.123Z,101967.03
2022-08-07T09:10:26.452Z,101968.81
2022-08-07T09:12:53.098Z,101961.84
2022-08-07T09:16:21.958Z,101965.47
2022-08-07T09:17:59.506Z,101946.94
2022-08-07T09:20:34.991Z,101961.16
2022-08-07T09:24:31.971Z,101970.00
2022-08-07T09:25:18.283Z,101970.03
2022-08-07T09:27:54.948Z,101967.41
2022-08-07T09:30:08.406Z,101948.78
2022-08-07T09:32:23.749Z,101951.50
2022-08-07T09:34:45.391Z,101954.19
2022-08-07T09:37:04.185Z,101955.13
2022-08-07T09:39:53.672Z,101949.78
2022-08-07T09:42:02.929Z,101952.44
2022-08-07T09:44:32.899Z,101940.09
2022-08-07T09:47:51.688Z,101943.59
2022-08-07T09:50:02.402Z,101939.19
2022-08-07T09:52:33.323Z,101939.19
2022-08-07T09:54:45.360Z,101936.53
2022-08-07T09:57:22.900Z,101932.97
2022-08-07T09:59:46.675Z,101925.81
2022-08-07T10:02:19.429Z,101909.84
2022-08-07T10:04:54.997Z,101928.34
2022-08-07T10:07:26.262Z,101920.31
2022-08-07T10:10:00.824Z,101914.03
2022-08-07T10:12:21.913Z,101925.59
2022-08-07T10:14:54.190Z,101905.25
2022-08-07T10:17:14.159Z,101915.78
2022-08-07T10:19:37.743Z,101919.34
2022-08-07T10:22:15.573Z,101903.28
2022-08-07T10:24:45.476Z,101909.41
2022-08-07T10:26:58.866Z,101900.50
2022-08-07T10:29:19.032Z,101913.66
2022-08-07T10:31:53.251Z,101900.22
2022-08-07T10:34:17.862Z,101893.16
2022-08-07T10:36:36.434Z,101893.94
2022-08-07T10:38:52.050Z,101904.63
2022-08-07T10:41:07.273Z,101899.06
2022-08-07T10:43:19.478Z,101897.19
2022-08-07T10:45:44.362Z,101900.63
2022-08-07T10:48:14.472Z,101887.25
2022-08-07T10:50:26.294Z,101887.19
2022-08-07T10:52:40.095Z,101878.09
2022-08-07T10:55:01.655Z,101887.63
2022-08-07T10:57:15.443Z,101883.91
2022-08-07T10:59:30.434Z,101885.78
2022-08-07T11:01:52.060Z,101877.84
2022-08-07T11:04:31.959Z,101870.03
2022-08-07T11:06:46.268Z,101873.16
2022-08-07T11:08:59.976Z,101874.06
2022-08-07T11:11:10.020Z,101853.03
2022-08-07T11:14:42.090Z,101859.59
2022-08-07T11:15:54.285Z,101864.44
2022-08-07T11:18:04.549Z,101855.25
2022-08-07T11:20:15.561Z,101850.81
2022-08-07T11:22:32.468Z,101853.53
2022-08-07T11:24:51.868Z,101842.78
2022-08-07T11:27:03.170Z,101843.34
2022-08-07T11:29:13.064Z,101851.75
2022-08-07T11:31:42.709Z,101839.66
2022-08-07T11:34:00.296Z,101841.78
2022-08-07T11:36:20.548Z,101844.81
2022-08-07T11:38:34.495Z,101830.16
2022-08-07T11:40:49.871Z,101837.75
2022-08-07T11:43:00.823Z,101829.53
2022-08-07T11:45:20.504Z,101825.81
2022-08-07T11:47:56.662Z,101826.00
2022-08-07T11:50:32.755Z,101820.53
2022-08-07T11:52:51.290Z,101820.34
2022-08-07T11:55:13.192Z,101826.72
2022-08-07T11:57:58.039Z,101827.69
2022-08-07T12:00:19.530Z,101817.16
2022-08-07T12:02:37.057Z,101815.81
2022-08-07T12:04:57.408Z,101822.81
2022-08-07T12:07:09.125Z,101818.22
2022-08-07T12:09:31.723Z,101813.75
2022-08-07T12:11:43.486Z,101815.19
2022-08-07T12:14:19.164Z,101815.19
2022-08-07T12:16:30.709Z,101825.66
2022-08-07T12:18:39.130Z,101812.00
2022-08-07T12:20:57.173Z,101808.06
2022-08-07T12:24:05.981Z,101817.72
2022-08-07T12:26:02.797Z,101809.03
2022-08-07T12:28:30.848Z,101803.41
2022-08-07T12:30:40.402Z,101804.44
2022-08-07T12:32:59.005Z,101803.00
2022-08-07T12:35:05.691Z,101793.75
2022-08-07T12:37:16.565Z,101796.34
2022-08-07T12:39:42.715Z,101796.41
2022-08-07T12:41:51.909Z,101783.69
2022-08-07T12:44:03.455Z,101793.16
2022-08-07T12:46:31.994Z,101795.75
2022-08-07T12:48:51.934Z,101792.69
2022-08-07T12:51:17.172Z,101790.28
2022-08-07T12:53:30.222Z,101780.28
2022-08-07T12:56:09.250Z,101780.59
2022-08-07T12:58:18.026Z,101779.88
2022-08-07T13:00:32.726Z,101767.91
2022-08-07T13:03:00.908Z,101772.28
2022-08-07T13:06:03.305Z,101763.28
2022-08-07T13:08:12.555Z,101770.78
2022-08-07T13:10:39.527Z,101766.06
2022-08-07T13:12:58.002Z,101765.66
2022-08-07T13:15:07.976Z,101767.53
2022-08-07T13:17:21.310Z,101763.63
2022-08-07T13:19:50.551Z,101751.69
2022-08-07T13:22:12.698Z,101759.19
2022-08-07T13:24:29.409Z,101750.72
2022-08-07T13:26:41.696Z,101749.22
2022-08-07T13:28:58.162Z,101752.28
2022-08-07T13:31:06.380Z,101753.38
2022-08-07T13:34:33.141Z,101750.78
2022-08-07T13:35:59.565Z,101752.91
2022-08-07T13:38:15.074Z,101742.72
2022-08-07T13:40:34.346Z,101731.81
2022-08-07T13:42:47.302Z,101732.22
2022-08-07T13:45:11.561Z,101734.19
2022-08-07T13:47:25.199Z,101736.72
2022-08-07T13:50:33.065Z,101716.50
2022-08-07T13:52:16.395Z,101730.78
2022-08-07T13:54:33.520Z,101724.25
2022-08-07T13:56:51.958Z,101722.75
2022-08-07T13:59:05.492Z,101715.16
2022-08-07T14:01:13.508Z,101722.88
2022-08-07T14:03:30.069Z,101721.41
2022-08-07T14:05:46.346Z,101718.50
2022-08-07T14:08:00.122Z,101709.16
2022-08-07T14:10:21.637Z,101726.97
2022-08-07T14:12:42.025Z,101714.69
2022-08-07T14:14:57.143Z,101720.34
2022-08-07T14:17:13.051Z,101690.41
2022-08-07T14:20:43.229Z,101707.31
2022-08-07T14:22:12.467Z,101703.34
2022-08-07T14:24:33.347Z,101699.09
2022-08-07T14:26:50.316Z,101698.66
2022-08-07T14:28:57.461Z,101691.53
2022-08-07T14:31:05.888Z,101691.09
2022-08-07T14:33:10.161Z,101703.03
2022-08-07T14:35:43.312Z,101690.53
2022-08-07T14:38:05.542Z,101689.84
2022-08-07T14:40:26.586Z,101664.72
2022-08-07T14:42:35.506Z,101684.53
2022-08-07T14:47:27.719Z,101678.88
2022-08-07T14:49:57.133Z,101683.28
2022-08-07T14:52:02.790Z,101681.31
2022-08-07T14:54:34.462Z,101681.53
2022-08-07T14:56:35.183Z,101679.69
2022-08-07T14:58:42.629Z,101676.00
2022-08-07T15:00:51.576Z,101676.19
2022-08-07T15:02:58.247Z,101678.84
2022-08-07T15:05:02.334Z,101684.16
2022-08-07T15:07:17.803Z,101685.28
2022-08-07T15:12:01.489Z,101671.59
2022-08-07T15:14:10.825Z,101676.56
2022-08-07T15:16:20.166Z,101669.03
2022-08-07T15:18:41.915Z,101674.09
2022-08-07T15:20:55.026Z,101671.91
2022-08-07T15:23:20.146Z,101673.91
2022-08-07T15:28:36.294Z,101667.63
2022-08-07T15:30:28.579Z,101665.16
2022-08-07T15:35:06.569Z,101673.78
2022-08-07T15:37:12.148Z,101675.34
2022-08-07T15:39:17.671Z,101663.88
2022-08-07T15:42:44.932Z,101670.94
2022-08-07T15:44:02.234Z,101667.69
2022-08-07T15:51:11.856Z,101668.50
2022-08-07T15:53:21.685Z,101662.22
2022-08-07T15:55:53.429Z,101663.31
2022-08-07T15:58:00.256Z,101655.13
2022-08-07T16:00:07.094Z,101648.00
2022-08-07T16:02:15.482Z,101645.50
2022-08-07T16:04:20.606Z,101647.63
2022-08-07T16:06:31.110Z,101644.25
2022-08-07T16:08:38.338Z,101648.06
2022-08-07T16:10:48.648Z,101656.31
2022-08-07T16:13:05.448Z,101651.53
2022-08-07T16:15:55.293Z,101652.34
2022-08-07T16:18:09.301Z,101647.69
2022-08-07T16:21:43.712Z,101644.34
2022-08-07T16:23:53.572Z,101645.00
2022-08-07T16:26:06.349Z,101648.56
2022-08-07T16:30:05.663Z,101651.03
2022-08-07T16:30:53.451Z,101637.28
2022-08-07T16:34:01.306Z,101638.56
2022-08-07T16:35:52.132Z,101636.34
2022-08-07T16:38:38.973Z,101643.09
2022-08-07T16:41:12.679Z,101641.22
2022-08-07T16:44:03.787Z,101635.31
2022-08-07T16:47:05.985Z,101644.03
2022-08-07T16:50:27.541Z,101645.88
2022-08-07T16:52:48.701Z,101634.91
2022-08-07T16:54:54.213Z,101638.34
2022-08-07T16:58:01.037Z,101644.59
2022-08-07T16:59:55.837Z,101628.41
2022-08-07T17:02:11.846Z,101643.03
2022-08-07T17:04:32.055Z,101641.06
2022-08-07T17:06:57.896Z,101644.63
2022-08-07T17:10:05.433Z,101647.31
2022-08-07T17:12:01.483Z,101638.59
2022-08-07T17:14:19.037Z,101636.56
2022-08-07T17:16:27.063Z,101646.00
2022-08-07T17:18:37.128Z,101639.59
2022-08-07T17:20:42.417Z,101641.75
2022-08-07T17:23:03.830Z,101647.66
2022-08-07T17:25:17.651Z,101622.59
2022-08-07T17:27:35.315Z,101648.25
2022-08-07T17:30:14.723Z,101640.09
2022-08-07T17:32:35.318Z,101639.06
2022-08-07T17:35:32.957Z,101643.91
2022-08-07T17:38:05.776Z,101646.19
2022-08-07T17:39:53.218Z,101629.75
2022-08-07T17:42:12.917Z,101636.22
2022-08-07T17:44:41.290Z,101631.22
2022-08-07T17:46:55.801Z,101641.84
2022-08-07T17:49:09.525Z,101636.06
2022-08-07T17:51:23.019Z,101642.97
2022-08-07T17:54:01.039Z,101637.25
2022-08-07T17:56:12.320Z,101641.88
2022-08-07T17:58:30.552Z,101638.63
2022-08-07T18:00:48.702Z,101621.38
2022-08-07T18:02:57.715Z,101639.28
2022-08-07T18:05:21.079Z,101642.59
2022-08-07T18:07:38.072Z,101633.81
2022-08-07T18:10:06.310Z,101642.03
2022-08-07T18:12:27.881Z,101642.28
2022-08-07T18:14:45.045Z,101636.75
2022-08-07T18:16:57.490Z,101641.56
2022-08-07T18:21:08.287Z,101640.13
2022-08-07T18:21:58.337Z,101646.81
2022-08-07T18:24:07.010Z,101649.75
2022-08-07T18:26:16.486Z,101659.00
2022-08-07T18:28:35.844Z,101637.19
2022-08-07T18:30:50.171Z,101644.34
2022-08-07T18:33:27.039Z,101658.69
2022-08-07T18:35:51.712Z,101651.72
2022-08-07T18:38:59.265Z,101659.03
2022-08-07T18:40:53.654Z,101655.59
2022-08-07T18:43:12.241Z,101648.88
2022-08-07T18:45:43.908Z,101661.38
2022-08-07T18:48:01.333Z,101649.41
2022-08-07T18:50:38.726Z,101661.19
2022-08-07T18:53:04.553Z,101682.00
2022-08-07T18:55:40.646Z,101680.38
2022-08-07T18:57:58.573Z,101677.94
2022-08-07T19:00:34.418Z,101678.13
2022-08-07T19:02:42.468Z,101687.19
2022-08-07T19:05:10.464Z,101692.63
2022-08-07T19:07:34.415Z,101698.09
2022-08-07T19:09:57.702Z,101693.75
2022-08-07T19:12:12.289Z,101693.84
2022-08-07T19:14:23.768Z,101702.69
2022-08-07T19:17:06.908Z,101702.75
2022-08-07T19:19:16.392Z,101712.72
2022-08-07T19:21:55.834Z,101713.81
2022-08-07T19:24:07.761Z,101716.50
2022-08-07T19:26:22.808Z,101709.41
2022-08-07T19:30:57.966Z,101722.94
2022-08-07T19:31:39.546Z,101691.31
2022-08-07T19:33:41.923Z,101722.16
2022-08-07T19:35:52.855Z,101724.91
2022-08-07T19:37:59.530Z,101727.59
2022-08-07T19:40:05.987Z,101724.06
2022-08-07T19:42:24.552Z,101739.19
2022-08-07T19:44:41.135Z,101735.63
2022-08-07T19:46:55.860Z,101742.75
2022-08-07T19:49:06.510Z,101739.28
2022-08-07T19:51:19.230Z,101741.13
2022-08-07T19:54:32.371Z,101747.44
2022-08-07T19:55:57.750Z,101747.56
2022-08-07T19:58:13.473Z,101744.91
2022-08-07T20:00:28.836Z,101751.13
2022-08-07T20:02:39.154Z,101744.97
2022-08-07T20:04:46.282Z,101745.91
2022-08-07T20:06:55.253Z,101728.28
2022-08-07T20:09:03.080Z,101745.13
2022-08-07T20:11:12.196Z,101743.38
2022-08-07T20:13:27.134Z,101754.03
2022-08-07T20:15:37.440Z,101749.66
2022-08-07T20:17:43.691Z,101750.53
2022-08-07T20:19:58.537Z,101741.78
2022-08-07T20:22:03.365Z,101747.09
2022-08-07T20:24:16.546Z,101749.78
2022-08-07T20:26:32.833Z,101745.41
2022-08-07T20:28:45.169Z,101747.19
2022-08-07T20:30:50.714Z,101749.91
2022-08-07T20:32:56.815Z,101752.56
2022-08-07T20:35:08.452Z,101754.38
2022-08-07T20:37:15.189Z,101756.13
2022-08-07T20:40:01.046Z,101760.63
2022-08-07T20:41:49.236Z,101756.19
2022-08-07T20:43:57.313Z,101761.56
2022-08-07T20:46:26.518Z,101762.41
2022-08-07T20:48:30.848Z,101768.59
2022-08-07T20:50:40.486Z,101770.44
2022-08-07T20:52:51.354Z,101778.44
2022-08-07T20:54:57.038Z,101770.47
2022-08-07T20:57:08.228Z,101769.56
2022-08-07T21:00:05.089Z,101772.25
2022-08-07T21:01:45.663Z,101767.88
2022-08-07T21:04:21.938Z,101762.56
2022-08-07T21:06:31.593Z,101764.34
2022-08-07T21:08:39.346Z,101770.56
2022-08-07T21:10:46.262Z,101767.00
2022-08-07T21:12:52.337Z,101761.69
2022-08-07T21:14:59.693Z,101774.06
2022-08-07T21:18:04.069Z,101772.28
2022-08-07T21:19:50.765Z,101770.53
2022-08-07T21:21:59.985Z,101779.41
2022-08-07T21:24:10.122Z,101774.16
2022-08-07T21:26:22.830Z,101774.16
2022-08-07T21:28:49.299Z,101773.31
2022-08-07T21:31:02.363Z,101780.44
2022-08-07T21:33:15.240Z,101769.84
2022-08-07T21:35:34.809Z,101775.16
2022-08-07T21:38:00.768Z,101779.63
2022-08-07T21:40:09.957Z,101780.53
2022-08-07T21:42:42.813Z,101785.84
2022-08-07T21:44:55.022Z,101788.53
2022-08-07T21:47:12.346Z,101786.78
2022-08-07T21:49:28.123Z,101786.84
2022-08-07T21:51:51.363Z,101787.72
2022-08-07T21:54:18.841Z,101787.72
2022-08-07T21:56:36.656Z,101793.94
2022-08-07T21:58:53.791Z,101795.72
2022-08-07T22:01:01.783Z,101801.94
2022-08-07T22:03:16.803Z,101778.00
2022-08-07T22:05:45.489Z,101799.28
2022-08-07T22:07:58.559Z,101798.34
2022-08-07T22:10:08.026Z,101799.25
2022-08-07T22:12:16.300Z,101798.38
2022-08-07T22:14:34.553Z,101802.78
2022-08-07T22:16:47.716Z,101796.56
2022-08-07T22:19:01.159Z,101802.81
2022-08-07T22:21:15.531Z,101800.13
2022-08-07T22:23:23.717Z,101792.16
2022-08-07T22:25:38.898Z,101787.72
2022-08-07T22:28:07.990Z,101788.63
2022-08-07T22:30:17.611Z,101792.16
2022-08-07T22:32:27.518Z,101788.63
2022-08-07T22:34:49.407Z,101793.91
2022-08-07T22:37:09.326Z,101793.03
2022-08-07T22:39:23.483Z,101796.59
2022-08-07T22:42:03.958Z,101741.72
2022-08-07T22:44:04.366Z,101799.22
2022-08-07T22:47:02.924Z,101787.72
2022-08-07T22:49:11.252Z,101764.72
2022-08-07T22:51:39.084Z,101793.94
2022-08-07T22:54:07.137Z,101800.09
2022-08-07T22:56:23.637Z,101803.59
2022-08-07T22:59:04.905Z,101801.81
2022-08-07T23:01:49.476Z,101799.09
2022-08-07T23:04:09.371Z,101802.59
2022-08-07T23:06:26.298Z,101801.72
2022-08-07T23:08:47.833Z,101806.09
2022-08-07T23:11:10.063Z,101799.88
2022-08-07T23:13:48.628Z,101766.22
2022-08-07T23:16:46.841Z,101797.19
2022-08-07T23:19:11.111Z,101807.75
2022-08-07T23:21:29.963Z,101805.09
2022-08-07T23:24:11.814Z,101807.72
2022-08-07T23:26:25.133Z,101807.72
2022-08-07T23:28:54.402Z,101807.78
2022-08-07T23:32:48.656Z,101813.91
2022-08-07T23:34:21.909Z,101801.53
2022-08-07T23:36:43.264Z,101810.38
2022-08-07T23:38:57.302Z,101786.47
2022-08-07T23:41:16.347Z,101795.38
2022-08-07T23:43:55.584Z,101805.94
2022-08-07T23:46:19.962Z,101806.81
2022-08-07T23:48:47.079Z,101808.56
2022-08-07T23:50:55.296Z,101805.00
2022-08-07T23:53:08.680Z,101807.69
2022-08-07T23:55:52.987Z,101810.31
2022-08-07T23:57:56.980Z,101808.53
